Rancho Santa Margarita, CA (92688)

6:39 AM PST on December 21, 2014 (GMT -0800)
Saddle Back Valley | Change Station
CLOSE
Current Station
Personal Weather Station
Location: Rancho Santa Margarita, CA
Elevation: 1109 ft
Nearby Weather Stations
Active Advisory: Beach Hazard Statement

Elev 1109 ft 33.65 °N, 117.59 °W | Updated 4 seconds ago

Partly Cloudy
Partly Cloudy
48.4 °F
Feels Like 48 °F
N
0.0
Wind Variable Wind from NE
Gusts 4.0 mph

Today
High -- | Low -- °F
--% Chance of Precip.
Yesterday
High -- | Low -- °F
Precip. -- in
6:51 AM 4:46 PM
Waning Crescent, 0% visible
Pressure 30.13 in
Visibility 9.0 miles
Clouds Scattered Clouds 2100 ft
Windchill 48 °F
Dew Point 45 °F
Humidity 87%
Rainfall 0.00 in
Snow Depth Not available.
UV 0 out of 12
Pollen 4.00 out of 12
Air Quality Not available.
Flu Activity Not available.
SPECI KSNA 211426Z 00000KT 9SM SCT021 13/09 A3013 RMK AO2

More Conditions Fewer Conditions

Pressure 30.13 in
Visibility 9.0 miles
Clouds Scattered Clouds 2100 ft
Windchill 48 °F
Dew Point 45 °F
Humidity 87%
Rainfall 0.00 in
Snow Depth Not available.
UV 0 out of 12
Pollen 4.00 out of 12
Air Quality Not available.
Flu Activity Not available.
SPECI KSNA 211426Z 00000KT 9SM SCT021 13/09 A3013 RMK AO2

More Conditions Fewer Conditions

10-Day Weather Forecast

Almanac

Astronomy

Dec. 21, 2014 Rise Set
Actual Time
Civil Twilight
Nautical Twilight
Astronomical Twilight
Moon
Length of Visible Light
Length of Day
Tomorrow will be .
, % of the Moon is Illuminated

Today's Extremes

State Highs State Lows

Community

WunderPhotos

Upload Photos

1,779,395 photos uploaded!

WunderBlogs® & News

Nearby

Air Quality

  Air Quality AQ Index Pollutant
Not available.

Snow Depth

Station Depth Elevation

Earthquake Activity

City Distance Mag. Time & Date
Minimum magnitude displayed is 2.5.

Coastal Water Temperatures

Place Temperature

Nearby Weather Stations